createdAt,value
2022-09-07T00:02:52.997Z,96397.25
2022-09-07T00:05:51.940Z,96396.75
2022-09-07T00:08:49.081Z,96395.59
2022-09-07T00:11:46.542Z,96392.53
2022-09-07T00:14:43.451Z,96391.41
2022-09-07T00:17:40.361Z,96395.81
2022-09-07T00:20:37.196Z,96395.88
2022-09-07T00:23:36.531Z,96389.75
2022-09-07T00:26:33.466Z,96388.50
2022-09-07T00:29:30.448Z,96391.94
2022-09-07T00:32:27.294Z,96385.41
2022-09-07T00:35:24.146Z,96389.88
2022-09-07T00:38:21.066Z,96395.94
2022-09-07T00:41:19.914Z,96399.75
2022-09-07T00:45:01.704Z,96400.13
2022-09-07T00:48:04.125Z,96403.09
2022-09-07T00:51:06.956Z,96402.16
2022-09-07T00:54:10.989Z,96398.03
2022-09-07T00:57:08.568Z,96404.03
2022-09-07T01:00:06.531Z,96406.97
2022-09-07T01:03:05.422Z,96418.34
2022-09-07T01:06:23.786Z,96411.78
2022-09-07T01:09:23.962Z,96418.06
2022-09-07T01:12:20.773Z,96425.16
2022-09-07T01:15:18.132Z,96425.50
2022-09-07T01:18:45.470Z,96422.34
2022-09-07T01:21:51.077Z,96424.84
2022-09-07T01:25:12.386Z,96420.91
2022-09-07T01:28:29.099Z,96421.03
2022-09-07T01:31:51.156Z,96414.81
2022-09-07T01:34:53.780Z,96415.63
2022-09-07T01:38:17.437Z,96419.75
2022-09-07T01:41:43.395Z,96425.94
2022-09-07T01:44:52.805Z,96429.34
2022-09-07T01:47:55.663Z,96431.03
2022-09-07T01:51:01.466Z,96427.13
2022-09-07T01:54:13.062Z,96426.00
2022-09-07T01:57:17.654Z,96413.16
2022-09-07T02:00:20.180Z,96409.09
2022-09-07T02:03:36.171Z,96394.91
2022-09-07T02:07:28.869Z,96397.06
2022-09-07T02:10:35.247Z,96396.72
2022-09-07T02:13:59.304Z,96400.66
2022-09-07T02:17:13.519Z,96393.22
2022-09-07T02:20:21.964Z,96398.66
2022-09-07T02:23:24.646Z,96392.59
2022-09-07T02:26:25.560Z,96392.63
2022-09-07T02:29:22.592Z,96399.00
2022-09-07T02:32:19.716Z,96387.53
2022-09-07T02:35:16.844Z,96391.72
2022-09-07T02:38:13.724Z,96391.50
2022-09-07T02:41:36.299Z,96397.00
2022-09-07T02:44:37.600Z,96387.31
2022-09-07T02:48:11.328Z,96387.19
2022-09-07T02:51:43.191Z,96388.69
2022-09-07T02:55:28.003Z,96386.44
2022-09-07T02:58:50.032Z,96397.06
2022-09-07T03:02:04.837Z,96388.78
2022-09-07T03:05:33.501Z,96384.75
2022-09-07T03:08:38.113Z,96383.28
2022-09-07T03:11:37.694Z,96380.56
2022-09-07T03:14:36.152Z,96379.88
2022-09-07T03:17:33.042Z,96384.16
2022-09-07T03:20:29.893Z,96375.63
2022-09-07T03:23:26.745Z,96381.03
2022-09-07T03:26:25.199Z,96383.25
2022-09-07T03:29:22.043Z,96370.75
2022-09-07T03:32:18.921Z,96375.94
2022-09-07T03:35:16.688Z,96373.38
2022-09-07T03:38:13.574Z,96372.94
2022-09-07T03:41:10.557Z,96364.69
2022-09-07T03:44:08.471Z,96363.91
2022-09-07T03:47:06.036Z,96365.16
2022-09-07T03:50:04.666Z,96367.19
2022-09-07T03:53:01.526Z,96363.94
2022-09-07T03:56:20.696Z,96363.59
2022-09-07T03:59:17.522Z,96356.59
2022-09-07T04:02:14.498Z,96352.25
2022-09-07T04:05:11.563Z,96351.78
2022-09-07T04:08:08.414Z,96352.91
2022-09-07T04:11:07.917Z,96354.38
2022-09-07T04:14:04.837Z,96349.06
2022-09-07T04:17:01.861Z,96363.69
2022-09-07T04:19:58.763Z,96364.66
2022-09-07T04:22:55.617Z,96371.88
2022-09-07T04:25:52.792Z,96377.50
2022-09-07T04:28:51.445Z,96375.84
2022-09-07T04:31:48.294Z,96379.56
2022-09-07T04:34:45.169Z,96377.19
2022-09-07T04:37:42.061Z,96375.06
2022-09-07T04:40:39.060Z,96374.63
2022-09-07T04:43:37.864Z,96381.25
2022-09-07T04:46:37.445Z,96386.00
2022-09-07T04:49:34.330Z,96385.59
2022-09-07T04:52:31.149Z,96393.84
2022-09-07T04:55:28.382Z,96387.66
2022-09-07T04:58:25.284Z,96384.28
2022-09-07T05:01:24.986Z,96389.69
2022-09-07T05:04:21.881Z,96394.63
2022-09-07T05:07:18.767Z,96383.63
2022-09-07T05:10:15.671Z,96390.47
2022-09-07T05:13:12.504Z,96389.13
2022-09-07T05:16:21.534Z,96381.47
2022-09-07T05:19:18.408Z,96367.00
2022-09-07T05:22:15.348Z,96362.59
2022-09-07T05:25:12.329Z,96356.53
2022-09-07T05:28:09.365Z,96347.75
2022-09-07T05:31:20.239Z,96377.88
2022-09-07T05:34:33.232Z,96375.16
2022-09-07T05:37:30.227Z,96382.69
2022-09-07T05:40:31.272Z,96393.16
2022-09-07T05:43:28.104Z,96380.44
2022-09-07T05:46:25.283Z,96363.50
2022-09-07T05:49:22.153Z,96369.09
2022-09-07T05:52:18.970Z,96367.06
2022-09-07T05:55:29.284Z,96383.50
2022-09-07T05:58:30.010Z,96358.97
2022-09-07T06:01:26.968Z,96353.75
2022-09-07T06:04:23.799Z,96349.13
2022-09-07T06:07:22.434Z,96345.84
2022-09-07T06:13:37.037Z,96337.91
2022-09-07T06:16:35.054Z,96337.50
2022-09-07T06:19:31.976Z,96334.72
2022-09-07T06:22:30.908Z,96320.06
2022-09-07T06:25:28.212Z,96315.44
2022-09-07T06:28:34.661Z,96310.50
2022-09-07T06:31:31.967Z,96317.72
2022-09-07T06:34:28.891Z,96311.88
2022-09-07T06:37:25.697Z,96316.66
2022-09-07T06:40:22.867Z,96317.72
2022-09-07T06:43:19.675Z,96319.03
2022-09-07T06:49:35.026Z,96328.84
2022-09-07T06:55:48.709Z,96329.97
2022-09-07T06:58:46.670Z,96324.56
2022-09-07T07:01:43.569Z,96334.50
2022-09-07T07:04:41.346Z,96326.22
2022-09-07T07:07:38.378Z,96329.63
2022-09-07T07:10:39.211Z,96330.25
2022-09-07T07:13:37.122Z,96331.38
2022-09-07T07:16:35.936Z,96343.69
2022-09-07T07:19:32.790Z,96351.00
2022-09-07T07:22:46.031Z,96342.66
2022-09-07T07:25:43.697Z,96353.22
2022-09-07T07:29:01.571Z,96351.66
2022-09-07T07:32:00.709Z,96349.91
2022-09-07T07:34:57.723Z,96357.19
2022-09-07T07:44:29.696Z,96351.47
2022-09-07T07:47:26.967Z,96352.88
2022-09-07T07:50:32.091Z,96350.06
2022-09-07T07:53:42.448Z,96356.97
2022-09-07T07:56:39.645Z,96359.41
2022-09-07T07:59:36.607Z,96367.59
2022-09-07T08:02:34.201Z,96358.78
2022-09-07T08:05:31.072Z,96359.44
2022-09-07T08:08:28.699Z,96367.78
2022-09-07T08:11:26.335Z,96363.38
2022-09-07T08:14:23.152Z,96374.78
2022-09-07T08:17:19.972Z,96366.88
2022-09-07T08:20:16.981Z,96368.44
2022-09-07T08:23:14.703Z,96365.66
2022-09-07T08:26:11.597Z,96373.81
2022-09-07T08:29:08.399Z,96361.28
2022-09-07T08:32:06.533Z,96361.91
2022-09-07T08:35:03.621Z,96365.00
2022-09-07T08:38:00.486Z,96356.94
2022-09-07T08:40:57.668Z,96362.84
2022-09-07T08:44:02.583Z,96362.34
2022-09-07T08:47:36.254Z,96361.44
2022-09-07T08:51:00.772Z,96367.28
2022-09-07T08:53:58.626Z,96361.00
2022-09-07T09:00:19.056Z,96361.78
2022-09-07T09:03:30.142Z,96360.25
2022-09-07T09:06:53.585Z,96361.44
2022-09-07T09:10:24.357Z,96369.22
2022-09-07T09:13:43.998Z,96364.16
2022-09-07T09:16:51.382Z,96366.13
2022-09-07T09:20:19.512Z,96365.31
2022-09-07T09:23:19.252Z,96364.56
2022-09-07T09:26:31.250Z,96364.16
2022-09-07T09:29:28.103Z,96358.66
2022-09-07T09:32:43.861Z,96370.78
2022-09-07T09:35:41.765Z,96367.63
2022-09-07T09:38:40.715Z,96359.03
2022-09-07T09:41:38.842Z,96362.91
2022-09-07T09:44:38.170Z,96359.34
2022-09-07T09:47:38.241Z,96366.47
2022-09-07T09:54:07.360Z,96371.03
2022-09-07T09:57:05.688Z,96374.75
2022-09-07T10:00:08.435Z,96375.34
2022-09-07T10:06:37.411Z,96375.50
2022-09-07T10:09:42.403Z,96375.06
2022-09-07T10:12:40.797Z,96369.91
2022-09-07T10:15:40.909Z,96363.19
2022-09-07T10:18:53.754Z,96352.06
2022-09-07T10:21:58.032Z,96336.41
2022-09-07T10:24:54.944Z,96347.75
2022-09-07T10:28:23.961Z,96340.66
2022-09-07T10:31:30.141Z,96339.91
2022-09-07T10:34:44.773Z,96334.47
2022-09-07T10:38:16.183Z,96335.78
2022-09-07T10:41:17.094Z,96337.47
2022-09-07T10:44:48.208Z,96339.06
2022-09-07T10:48:45.199Z,96334.84
2022-09-07T10:52:09.135Z,96323.97
2022-09-07T10:55:23.751Z,96313.59
2022-09-07T11:02:01.452Z,96318.97
2022-09-07T11:05:27.686Z,96310.72
2022-09-07T11:12:28.066Z,96313.91
2022-09-07T11:15:39.891Z,96304.97
2022-09-07T11:18:52.968Z,96296.84
2022-09-07T11:22:04.706Z,96291.84
2022-09-07T11:28:41.673Z,96279.00
2022-09-07T11:32:08.056Z,96284.03
2022-09-07T11:35:35.221Z,96272.75
2022-09-07T11:38:46.840Z,96274.22
2022-09-07T11:41:56.294Z,96273.03
2022-09-07T11:45:27.709Z,96271.56
2022-09-07T11:48:54.670Z,96264.78
2022-09-07T11:52:08.834Z,96266.94
2022-09-07T11:55:19.603Z,96253.91
2022-09-07T11:59:08.680Z,96253.91
2022-09-07T12:02:36.685Z,96253.88
2022-09-07T12:06:01.935Z,96257.06
2022-09-07T12:09:23.045Z,96249.16
2022-09-07T12:12:57.753Z,96239.53
2022-09-07T12:16:02.977Z,96242.63
2022-09-07T12:19:24.610Z,96240.03
2022-09-07T12:22:22.684Z,96245.41
2022-09-07T12:25:19.608Z,96248.78
2022-09-07T12:28:37.760Z,96241.13
2022-09-07T12:31:59.393Z,96241.09
2022-09-07T12:35:03.950Z,96236.66
2022-09-07T12:38:18.582Z,96231.50
2022-09-07T12:41:39.853Z,96234.72
2022-09-07T12:44:37.955Z,96245.69
2022-09-07T12:47:34.881Z,96235.16
2022-09-07T12:50:58.983Z,96233.16
2022-09-07T12:54:08.748Z,96222.28
2022-09-07T12:57:49.225Z,96216.25
2022-09-07T13:01:05.589Z,96200.41
2022-09-07T13:04:28.166Z,96218.06
2022-09-07T13:08:07.186Z,96205.91
2022-09-07T13:11:23.911Z,96205.72
2022-09-07T13:14:26.324Z,96204.63
2022-09-07T13:17:33.022Z,96202.97
2022-09-07T13:20:34.856Z,96208.03
2022-09-07T13:23:43.284Z,96192.50
2022-09-07T13:27:03.245Z,96186.56
2022-09-07T13:30:16.499Z,96181.09
2022-09-07T13:33:25.335Z,96177.34
2022-09-07T13:36:31.970Z,96184.66
2022-09-07T13:39:32.455Z,96177.59
2022-09-07T13:42:33.973Z,96174.25
2022-09-07T13:45:53.745Z,96169.75
2022-09-07T13:48:57.868Z,96172.84
2022-09-07T13:52:43.701Z,96168.75
2022-09-07T13:56:27.637Z,96173.34
2022-09-07T13:59:28.885Z,96179.97
2022-09-07T14:02:53.146Z,96173.31
2022-09-07T14:06:20.135Z,96174.00
2022-09-07T14:09:21.095Z,96169.44
2022-09-07T14:12:21.649Z,96168.94
2022-09-07T14:15:31.919Z,96178.78
2022-09-07T14:18:32.881Z,96175.97
2022-09-07T14:21:29.745Z,96163.19
2022-09-07T14:24:40.161Z,96167.75
2022-09-07T14:27:42.589Z,96163.44
2022-09-07T14:30:39.822Z,96162.72
2022-09-07T14:33:37.502Z,96156.66
2022-09-07T14:36:45.411Z,96155.47
2022-09-07T14:39:48.541Z,96153.16
2022-09-07T14:42:45.435Z,96164.94
2022-09-07T14:45:42.349Z,96159.47
2022-09-07T14:48:40.374Z,96154.75
2022-09-07T14:51:42.560Z,96149.66
2022-09-07T14:54:40.140Z,96149.06
2022-09-07T14:57:37.023Z,96136.25
2022-09-07T15:00:34.530Z,96129.94
2022-09-07T15:03:35.438Z,96130.72
2022-09-07T15:07:01.831Z,96131.44
2022-09-07T15:10:23.250Z,96123.59
2022-09-07T15:13:34.114Z,96127.81
2022-09-07T15:16:36.396Z,96126.53
2022-09-07T15:19:34.829Z,96125.94
2022-09-07T15:22:31.698Z,96130.31
2022-09-07T15:25:29.032Z,96122.22
2022-09-07T15:32:01.174Z,96109.41
2022-09-07T15:35:00.530Z,96117.91
2022-09-07T15:38:01.423Z,96108.19
2022-09-07T15:41:22.056Z,96120.75
2022-09-07T15:44:17.904Z,96118.53
2022-09-07T15:50:33.647Z,96114.19
2022-09-07T16:00:07.534Z,96102.28
2022-09-07T16:03:05.823Z,96107.31
2022-09-07T16:06:14.074Z,96113.03
2022-09-07T16:09:10.927Z,96103.22
2022-09-07T16:15:27.089Z,96106.41
2022-09-07T16:18:24.001Z,96110.69
2022-09-07T16:21:26.232Z,96113.50
2022-09-07T16:24:23.377Z,96102.59
2022-09-07T16:27:21.297Z,96114.25
2022-09-07T16:30:18.230Z,96113.31
2022-09-07T16:33:15.336Z,96115.69
2022-09-07T16:36:15.983Z,96112.44
2022-09-07T16:39:12.966Z,96114.09
2022-09-07T16:42:09.823Z,96115.66
2022-09-07T16:48:23.980Z,96124.97
2022-09-07T16:51:22.758Z,96113.41
2022-09-07T16:54:21.121Z,96113.47
2022-09-07T16:57:18.345Z,96113.84
2022-09-07T17:00:16.500Z,96116.34
2022-09-07T17:03:13.338Z,96118.81
2022-09-07T17:06:13.039Z,96118.56
2022-09-07T17:09:12.824Z,96116.03
2022-09-07T17:12:12.400Z,96106.47
2022-09-07T17:15:10.021Z,96114.34
2022-09-07T17:18:06.830Z,96105.38
2022-09-07T17:21:04.050Z,96116.00
2022-09-07T17:24:04.263Z,96114.06
2022-09-07T17:27:01.403Z,96119.91
2022-09-07T17:29:58.273Z,96127.00
2022-09-07T17:32:55.143Z,96116.13
2022-09-07T17:35:52.826Z,96117.25
2022-09-07T17:42:07.553Z,96113.38
2022-09-07T17:45:05.672Z,96120.38
2022-09-07T17:48:02.761Z,96128.53
2022-09-07T17:51:07.138Z,96129.31
2022-09-07T17:54:10.729Z,96131.63
2022-09-07T17:57:08.127Z,96139.34
2022-09-07T18:00:11.329Z,96138.53
2022-09-07T18:03:08.749Z,96140.44
2022-09-07T18:06:06.487Z,96148.97
2022-09-07T18:09:05.309Z,96153.25
2022-09-07T18:12:02.455Z,96160.97
2022-09-07T18:14:59.256Z,96161.38
2022-09-07T18:17:58.429Z,96168.56
2022-09-07T18:20:55.274Z,96181.50
2022-09-07T18:23:57.200Z,96179.41
2022-09-07T18:26:54.212Z,96179.72
2022-09-07T18:29:51.024Z,96183.22
2022-09-07T18:32:47.875Z,96194.44
2022-09-07T18:35:46.908Z,96185.03
2022-09-07T18:38:43.714Z,96194.28
2022-09-07T18:41:40.863Z,96196.94
2022-09-07T18:47:55.033Z,96194.75
2022-09-07T18:50:55.418Z,96201.72
2022-09-07T18:53:52.209Z,96198.16
2022-09-07T18:56:49.016Z,96201.56
2022-09-07T18:59:46.122Z,96210.06
2022-09-07T19:02:43.041Z,96203.56
2022-09-07T19:05:55.429Z,96202.78
2022-09-07T19:08:53.873Z,96202.19
2022-09-07T19:11:50.684Z,96205.03
2022-09-07T19:14:47.504Z,96196.72
2022-09-07T19:17:44.384Z,96195.19
2022-09-07T19:20:41.210Z,96191.41
2022-09-07T19:23:40.889Z,96192.75
2022-09-07T19:26:42.127Z,96189.31
2022-09-07T19:29:38.936Z,96188.59
2022-09-07T19:32:35.809Z,96194.47
2022-09-07T19:35:36.115Z,96213.16
2022-09-07T19:38:33.403Z,96206.19
2022-09-07T19:41:30.678Z,96199.63
2022-09-07T19:44:27.927Z,96208.59
2022-09-07T19:47:24.865Z,96201.38
2022-09-07T19:50:22.174Z,96207.88
2022-09-07T19:53:19.328Z,96204.34
2022-09-07T19:56:21.897Z,96201.19
2022-09-07T19:59:19.715Z,96211.06
2022-09-07T20:02:16.594Z,96208.88
2022-09-07T20:05:14.647Z,96208.22
2022-09-07T20:08:12.652Z,96202.66
2022-09-07T20:11:13.343Z,96198.47
2022-09-07T20:14:10.530Z,96198.16
2022-09-07T20:17:10.576Z,96187.41
2022-09-07T20:20:08.308Z,96187.88
2022-09-07T20:23:05.084Z,96177.03
2022-09-07T20:26:05.667Z,96175.94
2022-09-07T20:29:25.732Z,96178.75
2022-09-07T20:32:19.193Z,96176.50
2022-09-07T20:35:16.086Z,96180.38
2022-09-07T20:38:14.925Z,96176.56
2022-09-07T20:41:22.581Z,96172.59
2022-09-07T20:44:19.546Z,96171.25
2022-09-07T20:47:16.349Z,96174.41
2022-09-07T20:50:13.213Z,96177.66
2022-09-07T20:53:10.011Z,96174.06
2022-09-07T20:56:25.522Z,96172.69
2022-09-07T20:59:22.399Z,96175.31
2022-09-07T21:02:19.358Z,96165.59
2022-09-07T21:05:16.331Z,96161.97
2022-09-07T21:08:13.825Z,96166.09
2022-09-07T21:11:20.752Z,96168.88
2022-09-07T21:14:19.217Z,96167.06
2022-09-07T21:17:16.022Z,96161.50
2022-09-07T21:20:12.838Z,96151.56
2022-09-07T21:23:10.450Z,96143.44
2022-09-07T21:26:07.318Z,96145.88
2022-09-07T21:29:05.693Z,96139.66
2022-09-07T21:32:03.227Z,96141.94
2022-09-07T21:35:00.038Z,96144.28
2022-09-07T21:37:56.924Z,96144.22
2022-09-07T21:40:53.728Z,96138.75
2022-09-07T21:43:58.698Z,96126.25
2022-09-07T21:46:55.669Z,96133.34
2022-09-07T21:49:52.557Z,96129.38
2022-09-07T21:52:49.356Z,96134.19
2022-09-07T21:56:02.145Z,96134.59
2022-09-07T21:59:01.911Z,96134.75
2022-09-07T22:01:58.926Z,96117.72
2022-09-07T22:04:55.789Z,96115.69
2022-09-07T22:07:52.575Z,96122.00
2022-09-07T22:10:49.384Z,96125.81
2022-09-07T22:13:46.557Z,96120.38
2022-09-07T22:16:43.556Z,96116.16
2022-09-07T22:19:41.293Z,96107.19
2022-09-07T22:22:38.234Z,96110.44
2022-09-07T22:25:35.077Z,96115.75
2022-09-07T22:28:32.684Z,96116.25
2022-09-07T22:31:32.919Z,96114.69
2022-09-07T22:34:29.817Z,96111.03
2022-09-07T22:37:26.726Z,96120.13
2022-09-07T22:40:23.535Z,96118.78
2022-09-07T22:43:20.645Z,96111.16
2022-09-07T22:46:20.120Z,96116.72
2022-09-07T22:49:17.737Z,96100.09
2022-09-07T22:52:14.529Z,96101.69
2022-09-07T22:55:12.369Z,96103.56
2022-09-07T22:58:09.205Z,96103.41
2022-09-07T23:01:06.833Z,96093.78
2022-09-07T23:04:05.084Z,96088.38
2022-09-07T23:07:01.949Z,96086.94
2022-09-07T23:09:58.785Z,96086.03
2022-09-07T23:12:55.651Z,96091.41
2022-09-07T23:15:52.500Z,96080.44
2022-09-07T23:18:49.563Z,96077.94
2022-09-07T23:21:46.741Z,96078.97
2022-09-07T23:24:43.541Z,96072.47
2022-09-07T23:27:40.701Z,96073.47
2022-09-07T23:30:40.021Z,96057.03
2022-09-07T23:33:37.203Z,96054.69
2022-09-07T23:36:34.403Z,96047.09
2022-09-07T23:39:31.262Z,96055.53
2022-09-07T23:42:28.127Z,96058.03
2022-09-07T23:45:25.217Z,96050.91
2022-09-07T23:48:23.188Z,96052.25
2022-09-07T23:51:23.781Z,96051.88
2022-09-07T23:54:20.910Z,96054.06
2022-09-07T23:57:17.754Z,96051.97
